sensor_id;sensor_type;location;lat;lon;timestamp;P1;durP1;ratioP1;P2;durP2;ratioP2
21091;SDS011;10704;42.678;23.288;2023-04-03T00:01:38;4.95;;;2.40;;
21091;SDS011;10704;42.678;23.288;2023-04-03T00:04:04;5.80;;;2.72;;
21091;SDS011;10704;42.678;23.288;2023-04-03T00:06:30;10.68;;;4.03;;
21091;SDS011;10704;42.678;23.288;2023-04-03T00:08:57;5.95;;;2.60;;
21091;SDS011;10704;42.678;23.288;2023-04-03T00:11:23;4.03;;;2.10;;
21091;SDS011;10704;42.678;23.288;2023-04-03T00:13:50;4.35;;;2.03;;
21091;SDS011;10704;42.678;23.288;2023-04-03T00:16:16;4.10;;;1.80;;
21091;SDS011;10704;42.678;23.288;2023-04-03T00:18:42;4.43;;;2.13;;
21091;SDS011;10704;42.678;23.288;2023-04-03T00:21:09;7.53;;;2.70;;
21091;SDS011;10704;42.678;23.288;2023-04-03T00:23:38;5.65;;;3.33;;
21091;SDS011;10704;42.678;23.288;2023-04-03T00:26:04;5.68;;;3.05;;
21091;SDS011;10704;42.678;23.288;2023-04-03T00:28:30;7.05;;;3.67;;
21091;SDS011;10704;42.678;23.288;2023-04-03T00:30:56;5.28;;;3.25;;
21091;SDS011;10704;42.678;23.288;2023-04-03T00:33:22;3.85;;;2.17;;
21091;SDS011;10704;42.678;23.288;2023-04-03T00:35:49;5.05;;;2.50;;
21091;SDS011;10704;42.678;23.288;2023-04-03T00:38:16;4.97;;;2.20;;
21091;SDS011;10704;42.678;23.288;2023-04-03T00:40:43;3.70;;;1.80;;
21091;SDS011;10704;42.678;23.288;2023-04-03T00:43:21;5.20;;;1.85;;
21091;SDS011;10704;42.678;23.288;2023-04-03T00:45:53;3.80;;;1.50;;
21091;SDS011;10704;42.678;23.288;2023-04-03T00:51:06;4.93;;;1.90;;
21091;SDS011;10704;42.678;23.288;2023-04-03T00:53:44;6.90;;;1.90;;
21091;SDS011;10704;42.678;23.288;2023-04-03T00:56:15;5.75;;;2.03;;
21091;SDS011;10704;42.678;23.288;2023-04-03T00:58:44;4.72;;;2.08;;
21091;SDS011;10704;42.678;23.288;2023-04-03T01:01:18;5.45;;;2.30;;
21091;SDS011;10704;42.678;23.288;2023-04-03T01:03:48;5.07;;;2.30;;
21091;SDS011;10704;42.678;23.288;2023-04-03T01:06:16;5.40;;;1.98;;
21091;SDS011;10704;42.678;23.288;2023-04-03T01:08:47;4.63;;;2.58;;
21091;SDS011;10704;42.678;23.288;2023-04-03T01:11:15;5.47;;;1.92;;
21091;SDS011;10704;42.678;23.288;2023-04-03T01:13:42;4.40;;;1.90;;
21091;SDS011;10704;42.678;23.288;2023-04-03T01:16:08;4.18;;;2.13;;
21091;SDS011;10704;42.678;23.288;2023-04-03T01:18:35;4.18;;;1.98;;
21091;SDS011;10704;42.678;23.288;2023-04-03T01:27:06;4.47;;;2.13;;
21091;SDS011;10704;42.678;23.288;2023-04-03T01:29:35;7.93;;;2.50;;
21091;SDS011;10704;42.678;23.288;2023-04-03T01:32:02;5.32;;;2.65;;
21091;SDS011;10704;42.678;23.288;2023-04-03T01:34:29;6.57;;;3.97;;
21091;SDS011;10704;42.678;23.288;2023-04-03T01:36:57;5.63;;;3.10;;
21091;SDS011;10704;42.678;23.288;2023-04-03T01:39:23;7.68;;;4.50;;
21091;SDS011;10704;42.678;23.288;2023-04-03T01:41:49;7.00;;;3.17;;
21091;SDS011;10704;42.678;23.288;2023-04-03T01:44:22;7.70;;;2.80;;
21091;SDS011;10704;42.678;23.288;2023-04-03T01:46:48;4.55;;;2.92;;
21091;SDS011;10704;42.678;23.288;2023-04-03T01:49:14;6.57;;;3.17;;
21091;SDS011;10704;42.678;23.288;2023-04-03T01:51:40;5.63;;;2.67;;
21091;SDS011;10704;42.678;23.288;2023-04-03T01:54:06;5.70;;;3.30;;
21091;SDS011;10704;42.678;23.288;2023-04-03T01:56:32;5.93;;;3.33;;
21091;SDS011;10704;42.678;23.288;2023-04-03T01:58:57;9.93;;;3.70;;
21091;SDS011;10704;42.678;23.288;2023-04-03T02:01:23;8.15;;;3.75;;
21091;SDS011;10704;42.678;23.288;2023-04-03T02:03:51;10.07;;;3.15;;
21091;SDS011;10704;42.678;23.288;2023-04-03T02:06:16;8.90;;;3.45;;
21091;SDS011;10704;42.678;23.288;2023-04-03T02:08:42;5.95;;;3.50;;
21091;SDS011;10704;42.678;23.288;2023-04-03T02:11:08;7.43;;;3.22;;
21091;SDS011;10704;42.678;23.288;2023-04-03T02:13:34;9.80;;;3.95;;
21091;SDS011;10704;42.678;23.288;2023-04-03T02:16:05;7.50;;;4.15;;
21091;SDS011;10704;42.678;23.288;2023-04-03T02:18:32;8.88;;;4.57;;
21091;SDS011;10704;42.678;23.288;2023-04-03T02:20:58;5.20;;;3.20;;
21091;SDS011;10704;42.678;23.288;2023-04-03T02:23:25;6.28;;;3.10;;
21091;SDS011;10704;42.678;23.288;2023-04-03T02:25:51;5.35;;;2.95;;
21091;SDS011;10704;42.678;23.288;2023-04-03T02:28:17;10.18;;;3.47;;
21091;SDS011;10704;42.678;23.288;2023-04-03T02:30:43;6.70;;;3.13;;
21091;SDS011;10704;42.678;23.288;2023-04-03T02:33:10;7.72;;;3.83;;
21091;SDS011;10704;42.678;23.288;2023-04-03T02:35:38;7.05;;;3.63;;
21091;SDS011;10704;42.678;23.288;2023-04-03T02:38:04;6.10;;;3.10;;
21091;SDS011;10704;42.678;23.288;2023-04-03T02:40:30;5.15;;;3.00;;
21091;SDS011;10704;42.678;23.288;2023-04-03T02:42:56;6.97;;;3.08;;
21091;SDS011;10704;42.678;23.288;2023-04-03T02:45:23;6.18;;;2.67;;
21091;SDS011;10704;42.678;23.288;2023-04-03T02:47:50;5.80;;;2.42;;
21091;SDS011;10704;42.678;23.288;2023-04-03T02:50:16;5.97;;;3.38;;
21091;SDS011;10704;42.678;23.288;2023-04-03T02:52:42;7.60;;;3.63;;
21091;SDS011;10704;42.678;23.288;2023-04-03T02:55:08;6.05;;;3.15;;
21091;SDS011;10704;42.678;23.288;2023-04-03T02:57:34;6.25;;;3.40;;
21091;SDS011;10704;42.678;23.288;2023-04-03T03:00:00;7.85;;;3.35;;
21091;SDS011;10704;42.678;23.288;2023-04-03T03:02:27;7.15;;;3.58;;
21091;SDS011;10704;42.678;23.288;2023-04-03T03:04:52;9.07;;;4.47;;
21091;SDS011;10704;42.678;23.288;2023-04-03T03:07:18;6.50;;;3.72;;
21091;SDS011;10704;42.678;23.288;2023-04-03T03:09:44;7.57;;;4.22;;
21091;SDS011;10704;42.678;23.288;2023-04-03T03:12:10;9.35;;;3.58;;
21091;SDS011;10704;42.678;23.288;2023-04-03T03:14:36;8.52;;;3.40;;
21091;SDS011;10704;42.678;23.288;2023-04-03T03:17:02;9.55;;;4.03;;
21091;SDS011;10704;42.678;23.288;2023-04-03T03:19:28;7.18;;;3.67;;
21091;SDS011;10704;42.678;23.288;2023-04-03T03:21:54;8.90;;;4.38;;
21091;SDS011;10704;42.678;23.288;2023-04-03T03:24:22;6.95;;;4.20;;
21091;SDS011;10704;42.678;23.288;2023-04-03T03:26:48;7.53;;;3.80;;
21091;SDS011;10704;42.678;23.288;2023-04-03T03:29:14;6.95;;;3.85;;
21091;SDS011;10704;42.678;23.288;2023-04-03T03:31:40;9.35;;;4.07;;
21091;SDS011;10704;42.678;23.288;2023-04-03T03:34:06;9.88;;;4.70;;
21091;SDS011;10704;42.678;23.288;2023-04-03T03:36:32;8.75;;;4.45;;
21091;SDS011;10704;42.678;23.288;2023-04-03T03:38:58;7.75;;;4.35;;
21091;SDS011;10704;42.678;23.288;2023-04-03T03:41:24;10.30;;;5.13;;
21091;SDS011;10704;42.678;23.288;2023-04-03T03:43:50;12.93;;;5.03;;
21091;SDS011;10704;42.678;23.288;2023-04-03T03:46:16;13.02;;;4.97;;
21091;SDS011;10704;42.678;23.288;2023-04-03T03:48:42;12.75;;;5.38;;
21091;SDS011;10704;42.678;23.288;2023-04-03T03:51:08;12.77;;;6.47;;
21091;SDS011;10704;42.678;23.288;2023-04-03T03:53:36;12.32;;;5.50;;
21091;SDS011;10704;42.678;23.288;2023-04-03T03:56:05;10.40;;;5.00;;
21091;SDS011;10704;42.678;23.288;2023-04-03T03:58:33;10.90;;;4.85;;
21091;SDS011;10704;42.678;23.288;2023-04-03T04:01:01;15.00;;;5.50;;
21091;SDS011;10704;42.678;23.288;2023-04-03T04:03:28;9.93;;;4.93;;
21091;SDS011;10704;42.678;23.288;2023-04-03T04:05:55;8.25;;;4.72;;
21091;SDS011;10704;42.678;23.288;2023-04-03T04:08:21;10.13;;;4.90;;
21091;SDS011;10704;42.678;23.288;2023-04-03T04:10:47;10.90;;;4.82;;
21091;SDS011;10704;42.678;23.288;2023-04-03T04:13:15;9.95;;;5.38;;
21091;SDS011;10704;42.678;23.288;2023-04-03T04:15:42;8.68;;;5.07;;
21091;SDS011;10704;42.678;23.288;2023-04-03T04:18:08;10.18;;;5.43;;
21091;SDS011;10704;42.678;23.288;2023-04-03T04:20:34;16.50;;;6.20;;
21091;SDS011;10704;42.678;23.288;2023-04-03T04:23:01;12.45;;;6.38;;
21091;SDS011;10704;42.678;23.288;2023-04-03T04:25:28;18.30;;;7.15;;
21091;SDS011;10704;42.678;23.288;2023-04-03T04:27:54;18.02;;;9.10;;
21091;SDS011;10704;42.678;23.288;2023-04-03T04:30:20;14.10;;;7.35;;
21091;SDS011;10704;42.678;23.288;2023-04-03T04:32:47;16.73;;;8.73;;
21091;SDS011;10704;42.678;23.288;2023-04-03T04:35:14;18.67;;;9.50;;
21091;SDS011;10704;42.678;23.288;2023-04-03T04:37:42;21.90;;;10.15;;
21091;SDS011;10704;42.678;23.288;2023-04-03T04:40:09;15.57;;;9.05;;
21091;SDS011;10704;42.678;23.288;2023-04-03T04:42:35;15.85;;;8.18;;
21091;SDS011;10704;42.678;23.288;2023-04-03T04:45:01;17.90;;;9.23;;
21091;SDS011;10704;42.678;23.288;2023-04-03T04:47:28;16.60;;;9.00;;
21091;SDS011;10704;42.678;23.288;2023-04-03T04:49:55;18.10;;;10.43;;
21091;SDS011;10704;42.678;23.288;2023-04-03T04:52:21;19.85;;;11.00;;
21091;SDS011;10704;42.678;23.288;2023-04-03T04:54:47;16.70;;;9.50;;
21091;SDS011;10704;42.678;23.288;2023-04-03T04:57:13;20.33;;;10.00;;
21091;SDS011;10704;42.678;23.288;2023-04-03T04:59:40;17.58;;;9.52;;
21091;SDS011;10704;42.678;23.288;2023-04-03T05:02:06;16.13;;;8.40;;
21091;SDS011;10704;42.678;23.288;2023-04-03T05:04:32;18.30;;;9.65;;
21091;SDS011;10704;42.678;23.288;2023-04-03T05:07:04;20.33;;;10.20;;
21091;SDS011;10704;42.678;23.288;2023-04-03T05:09:33;16.73;;;9.50;;
21091;SDS011;10704;42.678;23.288;2023-04-03T05:11:59;20.02;;;10.20;;
21091;SDS011;10704;42.678;23.288;2023-04-03T05:14:29;22.02;;;10.57;;
21091;SDS011;10704;42.678;23.288;2023-04-03T05:17:00;19.92;;;9.73;;
21091;SDS011;10704;42.678;23.288;2023-04-03T05:19:28;19.08;;;10.55;;
21091;SDS011;10704;42.678;23.288;2023-04-03T05:21:55;19.88;;;10.32;;
21091;SDS011;10704;42.678;23.288;2023-04-03T05:24:21;18.70;;;9.90;;
21091;SDS011;10704;42.678;23.288;2023-04-03T05:26:47;15.52;;;8.98;;
21091;SDS011;10704;42.678;23.288;2023-04-03T05:29:14;19.05;;;9.00;;
21091;SDS011;10704;42.678;23.288;2023-04-03T05:31:40;20.27;;;9.85;;
21091;SDS011;10704;42.678;23.288;2023-04-03T05:34:08;23.20;;;9.60;;
21091;SDS011;10704;42.678;23.288;2023-04-03T05:36:36;18.23;;;9.45;;
21091;SDS011;10704;42.678;23.288;2023-04-03T05:39:05;15.65;;;9.07;;
21091;SDS011;10704;42.678;23.288;2023-04-03T05:41:35;23.48;;;9.65;;
21091;SDS011;10704;42.678;23.288;2023-04-03T05:44:01;16.20;;;9.93;;
21091;SDS011;10704;42.678;23.288;2023-04-03T05:46:27;17.33;;;9.88;;
21091;SDS011;10704;42.678;23.288;2023-04-03T05:48:55;19.65;;;10.50;;
21091;SDS011;10704;42.678;23.288;2023-04-03T05:51:25;23.95;;;12.90;;
21091;SDS011;10704;42.678;23.288;2023-04-03T05:54:00;21.25;;;12.27;;
21091;SDS011;10704;42.678;23.288;2023-04-03T05:56:34;24.17;;;12.75;;
21091;SDS011;10704;42.678;23.288;2023-04-03T05:59:00;23.23;;;11.75;;
21091;SDS011;10704;42.678;23.288;2023-04-03T06:01:26;18.52;;;11.32;;
21091;SDS011;10704;42.678;23.288;2023-04-03T06:03:54;22.23;;;13.00;;
21091;SDS011;10704;42.678;23.288;2023-04-03T06:06:21;23.15;;;14.80;;
21091;SDS011;10704;42.678;23.288;2023-04-03T06:08:47;20.70;;;10.23;;
21091;SDS011;10704;42.678;23.288;2023-04-03T06:11:13;23.23;;;11.43;;
21091;SDS011;10704;42.678;23.288;2023-04-03T06:13:40;24.05;;;12.73;;
21091;SDS011;10704;42.678;23.288;2023-04-03T06:16:06;32.20;;;14.98;;
21091;SDS011;10704;42.678;23.288;2023-04-03T06:18:34;20.50;;;10.73;;
21091;SDS011;10704;42.678;23.288;2023-04-03T06:21:00;20.05;;;9.70;;
21091;SDS011;10704;42.678;23.288;2023-04-03T06:23:28;18.75;;;8.68;;
21091;SDS011;10704;42.678;23.288;2023-04-03T06:25:53;26.33;;;12.93;;
21091;SDS011;10704;42.678;23.288;2023-04-03T06:28:19;30.52;;;17.23;;
21091;SDS011;10704;42.678;23.288;2023-04-03T06:30:45;32.05;;;19.48;;
21091;SDS011;10704;42.678;23.288;2023-04-03T06:33:11;32.33;;;20.60;;
21091;SDS011;10704;42.678;23.288;2023-04-03T06:35:39;29.23;;;18.17;;
21091;SDS011;10704;42.678;23.288;2023-04-03T06:38:06;31.17;;;18.50;;
21091;SDS011;10704;42.678;23.288;2023-04-03T06:40:34;30.88;;;19.05;;
21091;SDS011;10704;42.678;23.288;2023-04-03T06:43:00;34.35;;;18.20;;
21091;SDS011;10704;42.678;23.288;2023-04-03T06:45:27;24.90;;;16.85;;
21091;SDS011;10704;42.678;23.288;2023-04-03T06:47:53;28.42;;;17.38;;
21091;SDS011;10704;42.678;23.288;2023-04-03T06:50:19;28.27;;;17.70;;
21091;SDS011;10704;42.678;23.288;2023-04-03T06:52:45;23.63;;;15.93;;
21091;SDS011;10704;42.678;23.288;2023-04-03T06:55:11;30.50;;;17.23;;
21091;SDS011;10704;42.678;23.288;2023-04-03T06:57:37;26.02;;;16.30;;
21091;SDS011;10704;42.678;23.288;2023-04-03T07:00:04;27.55;;;16.52;;
21091;SDS011;10704;42.678;23.288;2023-04-03T07:02:31;18.17;;;9.30;;
21091;SDS011;10704;42.678;23.288;2023-04-03T07:04:56;10.70;;;6.13;;
21091;SDS011;10704;42.678;23.288;2023-04-03T07:07:22;8.43;;;4.88;;
21091;SDS011;10704;42.678;23.288;2023-04-03T07:09:48;16.98;;;8.98;;
21091;SDS011;10704;42.678;23.288;2023-04-03T07:12:14;9.55;;;5.00;;
21091;SDS011;10704;42.678;23.288;2023-04-03T07:14:41;13.50;;;5.63;;
21091;SDS011;10704;42.678;23.288;2023-04-03T07:17:07;12.07;;;6.40;;
21091;SDS011;10704;42.678;23.288;2023-04-03T07:19:33;8.32;;;3.97;;
21091;SDS011;10704;42.678;23.288;2023-04-03T07:21:59;11.90;;;4.68;;
21091;SDS011;10704;42.678;23.288;2023-04-03T07:24:25;9.88;;;4.85;;
21091;SDS011;10704;42.678;23.288;2023-04-03T07:26:52;8.48;;;4.70;;
21091;SDS011;10704;42.678;23.288;2023-04-03T07:29:18;5.97;;;3.90;;
21091;SDS011;10704;42.678;23.288;2023-04-03T07:31:47;13.85;;;5.32;;
21091;SDS011;10704;42.678;23.288;2023-04-03T07:34:13;7.78;;;3.55;;
21091;SDS011;10704;42.678;23.288;2023-04-03T07:36:39;11.23;;;3.95;;
21091;SDS011;10704;42.678;23.288;2023-04-03T07:39:04;8.88;;;3.83;;
21091;SDS011;10704;42.678;23.288;2023-04-03T07:41:32;9.93;;;4.15;;
21091;SDS011;10704;42.678;23.288;2023-04-03T07:43:58;7.97;;;4.20;;
21091;SDS011;10704;42.678;23.288;2023-04-03T07:46:24;8.57;;;3.67;;
21091;SDS011;10704;42.678;23.288;2023-04-03T07:48:50;6.32;;;3.58;;
21091;SDS011;10704;42.678;23.288;2023-04-03T07:51:15;11.93;;;4.05;;
21091;SDS011;10704;42.678;23.288;2023-04-03T07:53:41;11.25;;;4.32;;
21091;SDS011;10704;42.678;23.288;2023-04-03T07:56:07;10.13;;;4.30;;
21091;SDS011;10704;42.678;23.288;2023-04-03T07:58:34;9.82;;;4.28;;
21091;SDS011;10704;42.678;23.288;2023-04-03T08:01:01;11.18;;;5.65;;
21091;SDS011;10704;42.678;23.288;2023-04-03T08:03:27;9.68;;;6.05;;
21091;SDS011;10704;42.678;23.288;2023-04-03T08:05:53;13.18;;;7.80;;
21091;SDS011;10704;42.678;23.288;2023-04-03T08:08:20;13.65;;;8.82;;
21091;SDS011;10704;42.678;23.288;2023-04-03T08:10:48;15.07;;;9.73;;
21091;SDS011;10704;42.678;23.288;2023-04-03T08:13:18;15.43;;;9.60;;
21091;SDS011;10704;42.678;23.288;2023-04-03T08:15:45;13.70;;;9.30;;
21091;SDS011;10704;42.678;23.288;2023-04-03T08:18:11;15.23;;;8.68;;
21091;SDS011;10704;42.678;23.288;2023-04-03T08:20:38;12.77;;;8.48;;
21091;SDS011;10704;42.678;23.288;2023-04-03T08:23:06;12.40;;;6.68;;
21091;SDS011;10704;42.678;23.288;2023-04-03T08:25:33;13.82;;;7.05;;
21091;SDS011;10704;42.678;23.288;2023-04-03T08:27:59;11.38;;;7.00;;
21091;SDS011;10704;42.678;23.288;2023-04-03T08:30:27;18.20;;;7.85;;
21091;SDS011;10704;42.678;23.288;2023-04-03T08:32:53;17.48;;;8.18;;
21091;SDS011;10704;42.678;23.288;2023-04-03T08:35:18;14.93;;;9.40;;
21091;SDS011;10704;42.678;23.288;2023-04-03T08:37:45;17.80;;;9.82;;
21091;SDS011;10704;42.678;23.288;2023-04-03T08:40:15;19.27;;;10.50;;
21091;SDS011;10704;42.678;23.288;2023-04-03T08:42:51;18.67;;;10.43;;
21091;SDS011;10704;42.678;23.288;2023-04-03T08:45:37;19.23;;;10.75;;
21091;SDS011;10704;42.678;23.288;2023-04-03T08:50:49;19.45;;;10.63;;
21091;SDS011;10704;42.678;23.288;2023-04-03T08:53:19;20.83;;;11.93;;
21091;SDS011;10704;42.678;23.288;2023-04-03T08:55:51;17.77;;;11.70;;
21091;SDS011;10704;42.678;23.288;2023-04-03T08:58:22;20.70;;;11.38;;
21091;SDS011;10704;42.678;23.288;2023-04-03T09:01:04;23.65;;;12.15;;
21091;SDS011;10704;42.678;23.288;2023-04-03T09:03:37;21.65;;;13.20;;
21091;SDS011;10704;42.678;23.288;2023-04-03T09:17:09;29.25;;;16.88;;
21091;SDS011;10704;42.678;23.288;2023-04-03T09:19:41;25.83;;;16.25;;
21091;SDS011;10704;42.678;23.288;2023-04-03T09:22:27;33.40;;;15.45;;
21091;SDS011;10704;42.678;23.288;2023-04-03T09:27:39;21.33;;;10.50;;
21091;SDS011;10704;42.678;23.288;2023-04-03T09:30:05;24.27;;;12.45;;
21091;SDS011;10704;42.678;23.288;2023-04-03T09:32:37;17.70;;;11.40;;
21091;SDS011;10704;42.678;23.288;2023-04-03T09:35:04;20.30;;;11.43;;
21091;SDS011;10704;42.678;23.288;2023-04-03T09:37:50;20.00;;;9.35;;
21091;SDS011;10704;42.678;23.288;2023-04-03T09:40:34;21.05;;;10.13;;
21091;SDS011;10704;42.678;23.288;2023-04-03T09:43:23;15.38;;;9.27;;
21091;SDS011;10704;42.678;23.288;2023-04-03T09:45:51;14.75;;;8.50;;
21091;SDS011;10704;42.678;23.288;2023-04-03T09:48:20;18.55;;;7.88;;
21091;SDS011;10704;42.678;23.288;2023-04-03T09:53:45;12.82;;;7.28;;
21091;SDS011;10704;42.678;23.288;2023-04-03T09:58:43;14.52;;;7.00;;
21091;SDS011;10704;42.678;23.288;2023-04-03T10:01:22;12.15;;;7.07;;
21091;SDS011;10704;42.678;23.288;2023-04-03T10:06:41;12.20;;;6.65;;
21091;SDS011;10704;42.678;23.288;2023-04-03T10:09:17;13.82;;;6.50;;
21091;SDS011;10704;42.678;23.288;2023-04-03T10:14:34;11.80;;;6.15;;
21091;SDS011;10704;42.678;23.288;2023-04-03T10:28:57;10.93;;;4.55;;
21091;SDS011;10704;42.678;23.288;2023-04-03T10:31:55;13.85;;;5.45;;
21091;SDS011;10704;42.678;23.288;2023-04-03T10:34:43;10.00;;;5.38;;
21091;SDS011;10704;42.678;23.288;2023-04-03T11:05:08;5.80;;;3.20;;
21091;SDS011;10704;42.678;23.288;2023-04-03T11:07:45;5.28;;;2.92;;
21091;SDS011;10704;42.678;23.288;2023-04-03T11:10:15;9.88;;;3.00;;
21091;SDS011;10704;42.678;23.288;2023-04-03T11:15:32;6.97;;;3.00;;
21091;SDS011;10704;42.678;23.288;2023-04-03T11:18:21;6.78;;;2.40;;
21091;SDS011;10704;42.678;23.288;2023-04-03T11:20:52;8.13;;;2.70;;
21091;SDS011;10704;42.678;23.288;2023-04-03T11:23:38;7.53;;;3.05;;
21091;SDS011;10704;42.678;23.288;2023-04-03T11:26:10;6.85;;;3.20;;
21091;SDS011;10704;42.678;23.288;2023-04-03T11:28:37;6.10;;;3.58;;
21091;SDS011;10704;42.678;23.288;2023-04-03T11:31:13;8.05;;;4.20;;
21091;SDS011;10704;42.678;23.288;2023-04-03T11:33:50;6.32;;;3.20;;
21091;SDS011;10704;42.678;23.288;2023-04-03T11:36:57;6.57;;;3.03;;
21091;SDS011;10704;42.678;23.288;2023-04-03T11:39:26;7.40;;;3.63;;
21091;SDS011;10704;42.678;23.288;2023-04-03T11:47:56;11.75;;;4.10;;
21091;SDS011;10704;42.678;23.288;2023-04-03T11:50:31;5.20;;;3.17;;
21091;SDS011;10704;42.678;23.288;2023-04-03T12:16:26;7.30;;;3.85;;
21091;SDS011;10704;42.678;23.288;2023-04-03T12:24:03;7.50;;;3.90;;
21091;SDS011;10704;42.678;23.288;2023-04-03T12:27:01;6.03;;;3.83;;
21091;SDS011;10704;42.678;23.288;2023-04-03T12:43:42;10.90;;;5.35;;
21091;SDS011;10704;42.678;23.288;2023-04-03T12:46:37;7.22;;;5.13;;
21091;SDS011;10704;42.678;23.288;2023-04-03T12:49:26;8.70;;;5.13;;
21091;SDS011;10704;42.678;23.288;2023-04-03T12:52:02;9.32;;;5.50;;
21091;SDS011;10704;42.678;23.288;2023-04-03T12:54:37;10.05;;;5.45;;
21091;SDS011;10704;42.678;23.288;2023-04-03T12:59:52;12.48;;;5.75;;
21091;SDS011;10704;42.678;23.288;2023-04-03T13:02:27;14.13;;;7.25;;
21091;SDS011;10704;42.678;23.288;2023-04-03T13:04:55;8.38;;;6.20;;
21091;SDS011;10704;42.678;23.288;2023-04-03T13:07:24;13.68;;;7.03;;
21091;SDS011;10704;42.678;23.288;2023-04-03T13:10:00;11.02;;;7.22;;
21091;SDS011;10704;42.678;23.288;2023-04-03T13:12:52;12.32;;;6.85;;
21091;SDS011;10704;42.678;23.288;2023-04-03T13:15:22;11.00;;;6.95;;
21091;SDS011;10704;42.678;23.288;2023-04-03T13:17:55;10.10;;;7.00;;
21091;SDS011;10704;42.678;23.288;2023-04-03T13:20:26;10.90;;;7.95;;
21091;SDS011;10704;42.678;23.288;2023-04-03T13:23:02;12.50;;;8.00;;
21091;SDS011;10704;42.678;23.288;2023-04-03T13:25:34;14.27;;;9.00;;
21091;SDS011;10704;42.678;23.288;2023-04-03T13:28:04;15.23;;;8.77;;
21091;SDS011;10704;42.678;23.288;2023-04-03T13:30:33;11.40;;;8.40;;
21091;SDS011;10704;42.678;23.288;2023-04-03T13:33:06;13.45;;;8.55;;
21091;SDS011;10704;42.678;23.288;2023-04-03T13:35:46;14.82;;;8.43;;
21091;SDS011;10704;42.678;23.288;2023-04-03T13:40:51;12.60;;;9.00;;
21091;SDS011;10704;42.678;23.288;2023-04-03T13:43:21;13.15;;;10.50;;
21091;SDS011;10704;42.678;23.288;2023-04-03T13:48:36;17.65;;;11.52;;
21091;SDS011;10704;42.678;23.288;2023-04-03T13:51:12;13.73;;;10.15;;
21091;SDS011;10704;42.678;23.288;2023-04-03T13:53:53;16.65;;;11.07;;
21091;SDS011;10704;42.678;23.288;2023-04-03T13:56:25;13.55;;;10.13;;
21091;SDS011;10704;42.678;23.288;2023-04-03T14:01:46;15.38;;;9.75;;
21091;SDS011;10704;42.678;23.288;2023-04-03T14:07:18;12.90;;;9.82;;
21091;SDS011;10704;42.678;23.288;2023-04-03T14:09:45;11.55;;;9.65;;
21091;SDS011;10704;42.678;23.288;2023-04-03T14:12:16;14.63;;;9.93;;
21091;SDS011;10704;42.678;23.288;2023-04-03T14:14:46;14.55;;;9.77;;
21091;SDS011;10704;42.678;23.288;2023-04-03T14:17:16;15.95;;;9.88;;
21091;SDS011;10704;42.678;23.288;2023-04-03T14:19:46;15.40;;;9.73;;
21091;SDS011;10704;42.678;23.288;2023-04-03T14:22:18;9.88;;;7.70;;
21091;SDS011;10704;42.678;23.288;2023-04-03T14:24:49;13.45;;;9.45;;
21091;SDS011;10704;42.678;23.288;2023-04-03T14:27:18;13.68;;;9.07;;
21091;SDS011;10704;42.678;23.288;2023-04-03T14:29:50;14.10;;;8.18;;
21091;SDS011;10704;42.678;23.288;2023-04-03T14:32:18;12.98;;;9.10;;
21091;SDS011;10704;42.678;23.288;2023-04-03T14:34:45;11.82;;;8.23;;
21091;SDS011;10704;42.678;23.288;2023-04-03T14:37:13;10.20;;;7.78;;
21091;SDS011;10704;42.678;23.288;2023-04-03T14:39:41;13.68;;;8.25;;
21091;SDS011;10704;42.678;23.288;2023-04-03T14:42:11;11.68;;;8.25;;
21091;SDS011;10704;42.678;23.288;2023-04-03T14:44:41;13.38;;;8.52;;
21091;SDS011;10704;42.678;23.288;2023-04-03T14:47:12;11.05;;;8.15;;
21091;SDS011;10704;42.678;23.288;2023-04-03T14:49:41;11.25;;;7.65;;
21091;SDS011;10704;42.678;23.288;2023-04-03T14:52:22;10.45;;;7.63;;
21091;SDS011;10704;42.678;23.288;2023-04-03T14:54:59;8.88;;;6.10;;
21091;SDS011;10704;42.678;23.288;2023-04-03T14:57:27;9.27;;;7.00;;
21091;SDS011;10704;42.678;23.288;2023-04-03T14:59:55;9.50;;;7.13;;
21091;SDS011;10704;42.678;23.288;2023-04-03T15:04:55;11.40;;;7.93;;
21091;SDS011;10704;42.678;23.288;2023-04-03T15:07:23;12.35;;;8.35;;
21091;SDS011;10704;42.678;23.288;2023-04-03T15:09:50;12.70;;;7.88;;
21091;SDS011;10704;42.678;23.288;2023-04-03T15:12:16;9.57;;;7.15;;
21091;SDS011;10704;42.678;23.288;2023-04-03T15:14:43;10.82;;;8.27;;
21091;SDS011;10704;42.678;23.288;2023-04-03T15:17:16;10.02;;;7.32;;
21091;SDS011;10704;42.678;23.288;2023-04-03T15:19:45;12.50;;;8.43;;
21091;SDS011;10704;42.678;23.288;2023-04-03T15:22:15;10.68;;;7.43;;
21091;SDS011;10704;42.678;23.288;2023-04-03T15:24:43;11.02;;;7.20;;
21091;SDS011;10704;42.678;23.288;2023-04-03T15:27:10;10.43;;;7.53;;
21091;SDS011;10704;42.678;23.288;2023-04-03T15:29:37;11.70;;;7.82;;
21091;SDS011;10704;42.678;23.288;2023-04-03T15:32:04;9.18;;;7.05;;
21091;SDS011;10704;42.678;23.288;2023-04-03T15:34:31;11.82;;;7.30;;
21091;SDS011;10704;42.678;23.288;2023-04-03T15:36:57;10.30;;;7.07;;
21091;SDS011;10704;42.678;23.288;2023-04-03T15:39:24;12.63;;;7.57;;
21091;SDS011;10704;42.678;23.288;2023-04-03T15:41:50;12.30;;;8.55;;
21091;SDS011;10704;42.678;23.288;2023-04-03T15:44:19;9.88;;;8.38;;
21091;SDS011;10704;42.678;23.288;2023-04-03T15:46:46;10.70;;;7.60;;
21091;SDS011;10704;42.678;23.288;2023-04-03T15:49:14;9.23;;;6.88;;
21091;SDS011;10704;42.678;23.288;2023-04-03T15:51:40;8.80;;;6.50;;
21091;SDS011;10704;42.678;23.288;2023-04-03T15:54:06;8.48;;;6.38;;
21091;SDS011;10704;42.678;23.288;2023-04-03T15:56:32;8.57;;;6.70;;
21091;SDS011;10704;42.678;23.288;2023-04-03T15:58:58;7.93;;;5.88;;
21091;SDS011;10704;42.678;23.288;2023-04-03T16:01:24;6.85;;;5.47;;
21091;SDS011;10704;42.678;23.288;2023-04-03T16:03:50;7.05;;;5.32;;
21091;SDS011;10704;42.678;23.288;2023-04-03T16:06:16;9.93;;;6.13;;
21091;SDS011;10704;42.678;23.288;2023-04-03T16:08:46;8.20;;;5.43;;
21091;SDS011;10704;42.678;23.288;2023-04-03T16:11:13;9.80;;;5.97;;
21091;SDS011;10704;42.678;23.288;2023-04-03T16:13:39;10.32;;;5.95;;
21091;SDS011;10704;42.678;23.288;2023-04-03T16:16:08;10.93;;;6.40;;
21091;SDS011;10704;42.678;23.288;2023-04-03T16:18:34;8.82;;;6.22;;
21091;SDS011;10704;42.678;23.288;2023-04-03T16:21:01;9.73;;;6.20;;
21091;SDS011;10704;42.678;23.288;2023-04-03T16:23:27;10.68;;;6.93;;
21091;SDS011;10704;42.678;23.288;2023-04-03T16:25:53;9.07;;;6.18;;
21091;SDS011;10704;42.678;23.288;2023-04-03T16:28:19;8.77;;;6.47;;
21091;SDS011;10704;42.678;23.288;2023-04-03T16:30:45;9.23;;;6.80;;
21091;SDS011;10704;42.678;23.288;2023-04-03T16:33:12;12.43;;;8.90;;
21091;SDS011;10704;42.678;23.288;2023-04-03T16:35:38;11.55;;;7.88;;
21091;SDS011;10704;42.678;23.288;2023-04-03T16:38:07;13.02;;;8.27;;
21091;SDS011;10704;42.678;23.288;2023-04-03T16:40:32;13.98;;;8.57;;
21091;SDS011;10704;42.678;23.288;2023-04-03T16:43:00;15.45;;;10.80;;
21091;SDS011;10704;42.678;23.288;2023-04-03T16:45:26;29.75;;;15.90;;
21091;SDS011;10704;42.678;23.288;2023-04-03T16:47:52;15.25;;;9.77;;
21091;SDS011;10704;42.678;23.288;2023-04-03T16:50:18;10.32;;;7.53;;
21091;SDS011;10704;42.678;23.288;2023-04-03T16:52:47;9.90;;;6.93;;
21091;SDS011;10704;42.678;23.288;2023-04-03T16:55:13;7.25;;;5.40;;
21091;SDS011;10704;42.678;23.288;2023-04-03T16:57:39;8.85;;;6.22;;
21091;SDS011;10704;42.678;23.288;2023-04-03T17:00:05;7.22;;;4.97;;